sensor_id;sensor_type;location;lat;lon;timestamp;P1;durP1;ratioP1;P2;durP2;ratioP2
25549;SDS011;13444;50.562;7.262;2022-08-21T00:01:22;6.03;;;3.50;;
25549;SDS011;13444;50.562;7.262;2022-08-21T00:03:51;5.63;;;3.88;;
25549;SDS011;13444;50.562;7.262;2022-08-21T00:06:17;6.80;;;3.85;;
25549;SDS011;13444;50.562;7.262;2022-08-21T00:08:42;6.78;;;3.90;;
25549;SDS011;13444;50.562;7.262;2022-08-21T00:11:08;6.70;;;3.75;;
25549;SDS011;13444;50.562;7.262;2022-08-21T00:13:34;7.65;;;3.50;;
25549;SDS011;13444;50.562;7.262;2022-08-21T00:16:00;6.40;;;3.85;;
25549;SDS011;13444;50.562;7.262;2022-08-21T00:18:26;6.85;;;3.80;;
25549;SDS011;13444;50.562;7.262;2022-08-21T00:20:52;6.78;;;4.05;;
25549;SDS011;13444;50.562;7.262;2022-08-21T00:23:18;9.35;;;3.90;;
25549;SDS011;13444;50.562;7.262;2022-08-21T00:25:44;6.35;;;3.50;;
25549;SDS011;13444;50.562;7.262;2022-08-21T00:28:11;9.45;;;3.92;;
25549;SDS011;13444;50.562;7.262;2022-08-21T00:30:38;6.55;;;3.08;;
25549;SDS011;13444;50.562;7.262;2022-08-21T00:33:04;6.20;;;3.45;;
25549;SDS011;13444;50.562;7.262;2022-08-21T00:35:33;6.13;;;3.70;;
25549;SDS011;13444;50.562;7.262;2022-08-21T00:38:00;8.68;;;3.53;;
25549;SDS011;13444;50.562;7.262;2022-08-21T00:40:30;10.45;;;4.45;;
25549;SDS011;13444;50.562;7.262;2022-08-21T00:43:06;5.78;;;3.55;;
25549;SDS011;13444;50.562;7.262;2022-08-21T00:45:34;7.50;;;3.40;;
25549;SDS011;13444;50.562;7.262;2022-08-21T00:47:59;7.90;;;3.67;;
25549;SDS011;13444;50.562;7.262;2022-08-21T00:50:27;6.15;;;3.67;;
25549;SDS011;13444;50.562;7.262;2022-08-21T00:52:57;6.50;;;4.05;;
25549;SDS011;13444;50.562;7.262;2022-08-21T00:55:24;6.63;;;4.20;;
25549;SDS011;13444;50.562;7.262;2022-08-21T00:57:52;8.02;;;4.07;;
25549;SDS011;13444;50.562;7.262;2022-08-21T01:00:28;9.48;;;4.10;;
25549;SDS011;13444;50.562;7.262;2022-08-21T01:02:59;7.03;;;3.65;;
25549;SDS011;13444;50.562;7.262;2022-08-21T01:05:29;6.88;;;3.65;;
25549;SDS011;13444;50.562;7.262;2022-08-21T01:07:55;9.05;;;3.92;;
25549;SDS011;13444;50.562;7.262;2022-08-21T01:10:22;6.43;;;4.15;;
25549;SDS011;13444;50.562;7.262;2022-08-21T01:12:48;9.00;;;3.97;;
25549;SDS011;13444;50.562;7.262;2022-08-21T01:15:19;6.32;;;3.70;;
25549;SDS011;13444;50.562;7.262;2022-08-21T01:17:49;8.95;;;3.53;;
25549;SDS011;13444;50.562;7.262;2022-08-21T01:20:16;6.55;;;3.60;;
25549;SDS011;13444;50.562;7.262;2022-08-21T01:22:41;6.82;;;3.90;;
25549;SDS011;13444;50.562;7.262;2022-08-21T01:25:08;7.10;;;3.42;;
25549;SDS011;13444;50.562;7.262;2022-08-21T01:27:34;7.15;;;3.95;;
25549;SDS011;13444;50.562;7.262;2022-08-21T01:30:11;5.82;;;3.60;;
25549;SDS011;13444;50.562;7.262;2022-08-21T01:32:43;5.90;;;3.67;;
25549;SDS011;13444;50.562;7.262;2022-08-21T01:35:10;5.20;;;3.05;;
25549;SDS011;13444;50.562;7.262;2022-08-21T01:37:36;5.93;;;3.42;;
25549;SDS011;13444;50.562;7.262;2022-08-21T01:40:03;6.53;;;3.50;;
25549;SDS011;13444;50.562;7.262;2022-08-21T01:42:30;8.63;;;3.40;;
25549;SDS011;13444;50.562;7.262;2022-08-21T01:44:55;5.38;;;3.50;;
25549;SDS011;13444;50.562;7.262;2022-08-21T01:47:22;7.55;;;3.78;;
25549;SDS011;13444;50.562;7.262;2022-08-21T01:49:47;6.15;;;3.45;;
25549;SDS011;13444;50.562;7.262;2022-08-21T01:52:13;8.25;;;3.67;;
25549;SDS011;13444;50.562;7.262;2022-08-21T01:54:39;6.30;;;3.70;;
25549;SDS011;13444;50.562;7.262;2022-08-21T01:57:04;7.63;;;3.47;;
25549;SDS011;13444;50.562;7.262;2022-08-21T01:59:30;6.03;;;3.25;;
25549;SDS011;13444;50.562;7.262;2022-08-21T02:01:56;8.18;;;3.65;;
25549;SDS011;13444;50.562;7.262;2022-08-21T02:04:22;7.65;;;3.90;;
25549;SDS011;13444;50.562;7.262;2022-08-21T02:06:48;8.20;;;4.00;;
25549;SDS011;13444;50.562;7.262;2022-08-21T02:09:14;8.27;;;4.18;;
25549;SDS011;13444;50.562;7.262;2022-08-21T02:11:40;9.50;;;4.32;;
25549;SDS011;13444;50.562;7.262;2022-08-21T02:14:09;5.88;;;3.60;;
25549;SDS011;13444;50.562;7.262;2022-08-21T02:16:38;7.43;;;3.55;;
25549;SDS011;13444;50.562;7.262;2022-08-21T02:19:04;6.65;;;3.60;;
25549;SDS011;13444;50.562;7.262;2022-08-21T02:21:30;4.85;;;3.47;;
25549;SDS011;13444;50.562;7.262;2022-08-21T02:23:56;6.38;;;4.18;;
25549;SDS011;13444;50.562;7.262;2022-08-21T02:26:21;6.43;;;3.80;;
25549;SDS011;13444;50.562;7.262;2022-08-21T02:28:47;8.88;;;4.82;;
25549;SDS011;13444;50.562;7.262;2022-08-21T02:31:13;9.10;;;4.18;;
25549;SDS011;13444;50.562;7.262;2022-08-21T02:33:38;7.10;;;3.90;;
25549;SDS011;13444;50.562;7.262;2022-08-21T02:36:04;8.35;;;4.07;;
25549;SDS011;13444;50.562;7.262;2022-08-21T02:38:32;5.60;;;3.58;;
25549;SDS011;13444;50.562;7.262;2022-08-21T02:40:59;5.55;;;3.63;;
25549;SDS011;13444;50.562;7.262;2022-08-21T02:43:26;6.38;;;3.38;;
25549;SDS011;13444;50.562;7.262;2022-08-21T02:45:53;12.13;;;4.43;;
25549;SDS011;13444;50.562;7.262;2022-08-21T02:48:21;6.03;;;3.65;;
25549;SDS011;13444;50.562;7.262;2022-08-21T02:50:53;6.30;;;3.63;;
25549;SDS011;13444;50.562;7.262;2022-08-21T02:53:21;6.53;;;3.85;;
25549;SDS011;13444;50.562;7.262;2022-08-21T02:55:49;8.35;;;4.03;;
25549;SDS011;13444;50.562;7.262;2022-08-21T02:58:16;6.65;;;4.10;;
25549;SDS011;13444;50.562;7.262;2022-08-21T03:00:44;6.60;;;3.47;;
25549;SDS011;13444;50.562;7.262;2022-08-21T03:03:10;13.32;;;4.43;;
25549;SDS011;13444;50.562;7.262;2022-08-21T03:05:38;9.32;;;4.25;;
25549;SDS011;13444;50.562;7.262;2022-08-21T03:08:04;6.43;;;4.03;;
25549;SDS011;13444;50.562;7.262;2022-08-21T03:10:39;6.95;;;3.60;;
25549;SDS011;13444;50.562;7.262;2022-08-21T03:13:06;6.88;;;4.22;;
25549;SDS011;13444;50.562;7.262;2022-08-21T03:15:32;7.97;;;4.18;;
25549;SDS011;13444;50.562;7.262;2022-08-21T03:17:58;8.57;;;3.72;;
25549;SDS011;13444;50.562;7.262;2022-08-21T03:20:24;9.73;;;4.05;;
25549;SDS011;13444;50.562;7.262;2022-08-21T03:22:52;6.68;;;4.07;;
25549;SDS011;13444;50.562;7.262;2022-08-21T03:25:19;5.60;;;3.70;;
25549;SDS011;13444;50.562;7.262;2022-08-21T03:27:46;9.07;;;4.00;;
25549;SDS011;13444;50.562;7.262;2022-08-21T03:30:15;6.00;;;3.75;;
25549;SDS011;13444;50.562;7.262;2022-08-21T03:32:42;7.47;;;4.38;;
25549;SDS011;13444;50.562;7.262;2022-08-21T03:35:08;7.60;;;3.95;;
25549;SDS011;13444;50.562;7.262;2022-08-21T03:37:34;7.00;;;3.85;;
25549;SDS011;13444;50.562;7.262;2022-08-21T03:40:00;5.13;;;3.35;;
25549;SDS011;13444;50.562;7.262;2022-08-21T03:42:27;7.80;;;4.00;;
25549;SDS011;13444;50.562;7.262;2022-08-21T03:44:53;8.02;;;4.00;;
25549;SDS011;13444;50.562;7.262;2022-08-21T03:47:18;8.00;;;4.10;;
25549;SDS011;13444;50.562;7.262;2022-08-21T03:49:44;6.72;;;3.72;;
25549;SDS011;13444;50.562;7.262;2022-08-21T03:52:09;7.82;;;3.70;;
25549;SDS011;13444;50.562;7.262;2022-08-21T03:54:35;8.88;;;4.40;;
25549;SDS011;13444;50.562;7.262;2022-08-21T03:57:01;7.68;;;3.90;;
25549;SDS011;13444;50.562;7.262;2022-08-21T03:59:27;7.30;;;3.80;;
25549;SDS011;13444;50.562;7.262;2022-08-21T04:01:53;8.52;;;4.63;;
25549;SDS011;13444;50.562;7.262;2022-08-21T04:04:20;9.85;;;4.60;;
25549;SDS011;13444;50.562;7.262;2022-08-21T04:06:46;7.93;;;3.80;;
25549;SDS011;13444;50.562;7.262;2022-08-21T04:09:12;5.88;;;4.47;;
25549;SDS011;13444;50.562;7.262;2022-08-21T04:11:37;9.57;;;4.35;;
25549;SDS011;13444;50.562;7.262;2022-08-21T04:14:03;6.88;;;4.15;;
25549;SDS011;13444;50.562;7.262;2022-08-21T04:16:29;9.05;;;4.05;;
25549;SDS011;13444;50.562;7.262;2022-08-21T04:18:55;7.72;;;4.25;;
25549;SDS011;13444;50.562;7.262;2022-08-21T04:21:21;6.70;;;4.13;;
25549;SDS011;13444;50.562;7.262;2022-08-21T04:23:48;7.88;;;3.95;;
25549;SDS011;13444;50.562;7.262;2022-08-21T04:26:14;8.95;;;4.50;;
25549;SDS011;13444;50.562;7.262;2022-08-21T04:28:39;8.45;;;4.30;;
25549;SDS011;13444;50.562;7.262;2022-08-21T04:31:05;6.80;;;4.05;;
25549;SDS011;13444;50.562;7.262;2022-08-21T04:33:30;8.95;;;4.30;;
25549;SDS011;13444;50.562;7.262;2022-08-21T04:35:56;9.02;;;4.30;;
25549;SDS011;13444;50.562;7.262;2022-08-21T04:38:21;6.18;;;4.20;;
25549;SDS011;13444;50.562;7.262;2022-08-21T04:40:47;7.38;;;4.55;;
25549;SDS011;13444;50.562;7.262;2022-08-21T04:43:13;7.05;;;4.10;;
25549;SDS011;13444;50.562;7.262;2022-08-21T04:45:44;7.90;;;3.85;;
25549;SDS011;13444;50.562;7.262;2022-08-21T04:48:13;8.90;;;4.50;;
25549;SDS011;13444;50.562;7.262;2022-08-21T04:50:53;8.55;;;4.30;;
25549;SDS011;13444;50.562;7.262;2022-08-21T04:55:56;9.77;;;5.03;;
25549;SDS011;13444;50.562;7.262;2022-08-21T04:58:25;6.47;;;4.00;;
25549;SDS011;13444;50.562;7.262;2022-08-21T05:00:53;6.20;;;4.10;;
25549;SDS011;13444;50.562;7.262;2022-08-21T05:03:20;7.03;;;4.03;;
25549;SDS011;13444;50.562;7.262;2022-08-21T05:05:46;6.30;;;3.90;;
25549;SDS011;13444;50.562;7.262;2022-08-21T05:08:14;10.27;;;4.35;;
25549;SDS011;13444;50.562;7.262;2022-08-21T05:10:42;10.85;;;4.85;;
25549;SDS011;13444;50.562;7.262;2022-08-21T05:13:09;6.25;;;4.55;;
25549;SDS011;13444;50.562;7.262;2022-08-21T05:15:36;10.57;;;5.00;;
25549;SDS011;13444;50.562;7.262;2022-08-21T05:18:02;11.55;;;4.45;;
25549;SDS011;13444;50.562;7.262;2022-08-21T05:20:28;9.15;;;4.70;;
25549;SDS011;13444;50.562;7.262;2022-08-21T05:22:54;9.27;;;5.05;;
25549;SDS011;13444;50.562;7.262;2022-08-21T05:25:19;8.52;;;4.70;;
25549;SDS011;13444;50.562;7.262;2022-08-21T05:27:45;9.50;;;4.80;;
25549;SDS011;13444;50.562;7.262;2022-08-21T05:30:11;6.75;;;4.25;;
25549;SDS011;13444;50.562;7.262;2022-08-21T05:32:36;7.63;;;4.72;;
25549;SDS011;13444;50.562;7.262;2022-08-21T05:35:04;7.22;;;4.60;;
25549;SDS011;13444;50.562;7.262;2022-08-21T05:37:31;8.18;;;5.45;;
25549;SDS011;13444;50.562;7.262;2022-08-21T05:39:56;7.47;;;4.78;;
25549;SDS011;13444;50.562;7.262;2022-08-21T05:42:22;8.75;;;4.97;;
25549;SDS011;13444;50.562;7.262;2022-08-21T05:44:48;9.10;;;5.35;;
25549;SDS011;13444;50.562;7.262;2022-08-21T05:47:13;7.78;;;5.00;;
25549;SDS011;13444;50.562;7.262;2022-08-21T05:49:39;8.57;;;5.03;;
25549;SDS011;13444;50.562;7.262;2022-08-21T05:52:05;9.90;;;5.00;;
25549;SDS011;13444;50.562;7.262;2022-08-21T05:54:30;8.93;;;5.22;;
25549;SDS011;13444;50.562;7.262;2022-08-21T05:56:56;8.65;;;5.20;;
25549;SDS011;13444;50.562;7.262;2022-08-21T05:59:22;11.02;;;5.88;;
25549;SDS011;13444;50.562;7.262;2022-08-21T06:01:48;10.00;;;5.95;;
25549;SDS011;13444;50.562;7.262;2022-08-21T06:04:14;14.05;;;6.70;;
25549;SDS011;13444;50.562;7.262;2022-08-21T06:06:40;9.98;;;6.70;;
25549;SDS011;13444;50.562;7.262;2022-08-21T06:09:06;13.20;;;6.10;;
25549;SDS011;13444;50.562;7.262;2022-08-21T06:11:31;10.57;;;6.43;;
25549;SDS011;13444;50.562;7.262;2022-08-21T06:13:58;15.27;;;7.60;;
25549;SDS011;13444;50.562;7.262;2022-08-21T06:16:24;12.02;;;7.45;;
25549;SDS011;13444;50.562;7.262;2022-08-21T06:18:51;13.30;;;7.82;;
25549;SDS011;13444;50.562;7.262;2022-08-21T06:21:16;15.93;;;8.07;;
25549;SDS011;13444;50.562;7.262;2022-08-21T06:23:42;12.07;;;7.75;;
25549;SDS011;13444;50.562;7.262;2022-08-21T06:26:08;13.70;;;7.35;;
25549;SDS011;13444;50.562;7.262;2022-08-21T06:28:36;14.10;;;7.88;;
25549;SDS011;13444;50.562;7.262;2022-08-21T06:33:45;10.73;;;7.32;;
25549;SDS011;13444;50.562;7.262;2022-08-21T06:36:11;9.82;;;6.63;;
25549;SDS011;13444;50.562;7.262;2022-08-21T06:38:37;10.93;;;6.82;;
25549;SDS011;13444;50.562;7.262;2022-08-21T06:41:03;13.85;;;7.18;;
25549;SDS011;13444;50.562;7.262;2022-08-21T06:43:30;14.23;;;6.82;;
25549;SDS011;13444;50.562;7.262;2022-08-21T06:45:56;13.05;;;6.80;;
25549;SDS011;13444;50.562;7.262;2022-08-21T06:48:21;12.27;;;6.80;;
25549;SDS011;13444;50.562;7.262;2022-08-21T06:50:47;10.27;;;6.57;;
25549;SDS011;13444;50.562;7.262;2022-08-21T06:53:14;12.07;;;6.85;;
25549;SDS011;13444;50.562;7.262;2022-08-21T06:55:41;14.20;;;6.55;;
25549;SDS011;13444;50.562;7.262;2022-08-21T06:58:07;11.95;;;7.22;;
25549;SDS011;13444;50.562;7.262;2022-08-21T07:00:34;9.10;;;6.30;;
25549;SDS011;13444;50.562;7.262;2022-08-21T07:03:02;14.05;;;6.05;;
25549;SDS011;13444;50.562;7.262;2022-08-21T07:05:29;11.10;;;6.05;;
25549;SDS011;13444;50.562;7.262;2022-08-21T07:07:55;9.80;;;6.03;;
25549;SDS011;13444;50.562;7.262;2022-08-21T07:10:22;13.02;;;6.13;;
25549;SDS011;13444;50.562;7.262;2022-08-21T07:12:49;15.30;;;5.25;;
25549;SDS011;13444;50.562;7.262;2022-08-21T07:15:15;10.15;;;5.32;;
25549;SDS011;13444;50.562;7.262;2022-08-21T07:17:41;9.85;;;5.95;;
25549;SDS011;13444;50.562;7.262;2022-08-21T07:20:07;9.55;;;5.38;;
25549;SDS011;13444;50.562;7.262;2022-08-21T07:22:34;11.82;;;5.40;;
25549;SDS011;13444;50.562;7.262;2022-08-21T07:25:01;10.13;;;5.03;;
25549;SDS011;13444;50.562;7.262;2022-08-21T07:27:27;13.73;;;6.03;;
25549;SDS011;13444;50.562;7.262;2022-08-21T07:29:53;14.57;;;5.47;;
25549;SDS011;13444;50.562;7.262;2022-08-21T07:32:19;13.10;;;5.45;;
25549;SDS011;13444;50.562;7.262;2022-08-21T07:34:44;13.07;;;5.40;;
25549;SDS011;13444;50.562;7.262;2022-08-21T07:37:10;11.48;;;5.88;;
25549;SDS011;13444;50.562;7.262;2022-08-21T07:39:35;10.95;;;5.07;;
25549;SDS011;13444;50.562;7.262;2022-08-21T07:42:01;11.82;;;5.63;;
25549;SDS011;13444;50.562;7.262;2022-08-21T07:44:28;9.40;;;4.95;;
25549;SDS011;13444;50.562;7.262;2022-08-21T07:46:53;10.85;;;5.65;;
25549;SDS011;13444;50.562;7.262;2022-08-21T07:49:19;15.68;;;5.53;;
25549;SDS011;13444;50.562;7.262;2022-08-21T07:51:44;13.57;;;4.90;;
25549;SDS011;13444;50.562;7.262;2022-08-21T07:54:10;27.17;;;6.90;;
25549;SDS011;13444;50.562;7.262;2022-08-21T07:56:36;11.15;;;5.22;;
25549;SDS011;13444;50.562;7.262;2022-08-21T07:59:01;23.38;;;7.43;;
25549;SDS011;13444;50.562;7.262;2022-08-21T08:01:27;14.07;;;5.55;;
25549;SDS011;13444;50.562;7.262;2022-08-21T08:03:53;16.88;;;5.13;;
25549;SDS011;13444;50.562;7.262;2022-08-21T08:06:20;12.75;;;4.72;;
25549;SDS011;13444;50.562;7.262;2022-08-21T08:08:45;13.65;;;5.22;;
25549;SDS011;13444;50.562;7.262;2022-08-21T08:11:11;12.63;;;5.50;;
25549;SDS011;13444;50.562;7.262;2022-08-21T08:13:45;8.82;;;4.28;;
25549;SDS011;13444;50.562;7.262;2022-08-21T08:16:12;10.38;;;3.70;;
25549;SDS011;13444;50.562;7.262;2022-08-21T08:18:38;11.00;;;3.85;;
25549;SDS011;13444;50.562;7.262;2022-08-21T08:21:04;11.18;;;4.57;;
25549;SDS011;13444;50.562;7.262;2022-08-21T08:23:30;10.57;;;5.20;;
25549;SDS011;13444;50.562;7.262;2022-08-21T08:25:57;10.90;;;5.32;;
25549;SDS011;13444;50.562;7.262;2022-08-21T08:28:23;13.85;;;6.05;;
25549;SDS011;13444;50.562;7.262;2022-08-21T08:30:48;11.38;;;4.65;;
25549;SDS011;13444;50.562;7.262;2022-08-21T08:33:15;11.15;;;4.55;;
25549;SDS011;13444;50.562;7.262;2022-08-21T08:35:42;16.33;;;6.38;;
25549;SDS011;13444;50.562;7.262;2022-08-21T08:38:11;14.68;;;5.63;;
25549;SDS011;13444;50.562;7.262;2022-08-21T08:40:38;13.75;;;4.93;;
25549;SDS011;13444;50.562;7.262;2022-08-21T08:43:16;7.28;;;3.30;;
25549;SDS011;13444;50.562;7.262;2022-08-21T08:45:43;9.60;;;3.70;;
25549;SDS011;13444;50.562;7.262;2022-08-21T08:48:13;8.50;;;3.58;;
25549;SDS011;13444;50.562;7.262;2022-08-21T08:50:52;11.50;;;5.30;;
25549;SDS011;13444;50.562;7.262;2022-08-21T08:53:22;8.05;;;3.83;;
25549;SDS011;13444;50.562;7.262;2022-08-21T08:55:50;10.68;;;3.45;;
25549;SDS011;13444;50.562;7.262;2022-08-21T08:58:28;9.70;;;3.45;;
25549;SDS011;13444;50.562;7.262;2022-08-21T09:00:56;9.02;;;3.22;;
25549;SDS011;13444;50.562;7.262;2022-08-21T09:03:22;6.53;;;2.80;;
25549;SDS011;13444;50.562;7.262;2022-08-21T09:06:01;10.05;;;2.83;;
25549;SDS011;13444;50.562;7.262;2022-08-21T09:08:52;6.90;;;2.38;;
25549;SDS011;13444;50.562;7.262;2022-08-21T09:11:39;6.78;;;2.47;;
25549;SDS011;13444;50.562;7.262;2022-08-21T09:16:49;5.70;;;2.40;;
25549;SDS011;13444;50.562;7.262;2022-08-21T09:25:11;5.82;;;2.20;;
25549;SDS011;13444;50.562;7.262;2022-08-21T09:27:37;5.85;;;2.30;;
25549;SDS011;13444;50.562;7.262;2022-08-21T09:30:05;8.63;;;2.70;;
25549;SDS011;13444;50.562;7.262;2022-08-21T09:32:34;6.25;;;2.35;;
25549;SDS011;13444;50.562;7.262;2022-08-21T09:35:16;9.00;;;2.60;;
25549;SDS011;13444;50.562;7.262;2022-08-21T09:38:04;6.88;;;2.08;;
25549;SDS011;13444;50.562;7.262;2022-08-21T09:43:05;6.40;;;2.33;;
25549;SDS011;13444;50.562;7.262;2022-08-21T09:45:34;7.65;;;2.25;;
25549;SDS011;13444;50.562;7.262;2022-08-21T09:50:39;8.38;;;2.50;;
25549;SDS011;13444;50.562;7.262;2022-08-21T09:53:13;7.97;;;2.65;;
25549;SDS011;13444;50.562;7.262;2022-08-21T09:55:51;8.80;;;2.55;;
25549;SDS011;13444;50.562;7.262;2022-08-21T09:58:38;8.05;;;2.50;;
25549;SDS011;13444;50.562;7.262;2022-08-21T10:01:06;4.90;;;2.25;;
25549;SDS011;13444;50.562;7.262;2022-08-21T10:03:37;5.85;;;2.28;;
25549;SDS011;13444;50.562;7.262;2022-08-21T10:06:04;6.10;;;1.98;;
25549;SDS011;13444;50.562;7.262;2022-08-21T10:08:34;6.18;;;2.25;;
25549;SDS011;13444;50.562;7.262;2022-08-21T10:11:06;6.78;;;2.15;;
25549;SDS011;13444;50.562;7.262;2022-08-21T10:13:45;9.00;;;2.20;;
25549;SDS011;13444;50.562;7.262;2022-08-21T10:16:36;7.70;;;2.53;;
25549;SDS011;13444;50.562;7.262;2022-08-21T10:19:18;6.70;;;1.70;;
25549;SDS011;13444;50.562;7.262;2022-08-21T10:22:09;3.88;;;1.77;;
25549;SDS011;13444;50.562;7.262;2022-08-21T10:33:24;6.85;;;2.03;;
25549;SDS011;13444;50.562;7.262;2022-08-21T10:36:02;7.35;;;2.30;;
25549;SDS011;13444;50.562;7.262;2022-08-21T10:41:28;7.05;;;2.08;;
25549;SDS011;13444;50.562;7.262;2022-08-21T10:47:09;5.13;;;1.77;;
25549;SDS011;13444;50.562;7.262;2022-08-21T10:49:53;6.00;;;1.95;;
25549;SDS011;13444;50.562;7.262;2022-08-21T10:55:44;4.15;;;1.67;;
25549;SDS011;13444;50.562;7.262;2022-08-21T10:58:25;3.25;;;1.63;;
25549;SDS011;13444;50.562;7.262;2022-08-21T11:00:56;6.88;;;1.90;;
25549;SDS011;13444;50.562;7.262;2022-08-21T11:03:33;8.90;;;2.00;;
25549;SDS011;13444;50.562;7.262;2022-08-21T11:06:25;5.65;;;2.10;;
25549;SDS011;13444;50.562;7.262;2022-08-21T11:09:04;5.00;;;1.67;;
25549;SDS011;13444;50.562;7.262;2022-08-21T11:14:41;3.80;;;1.67;;
25549;SDS011;13444;50.562;7.262;2022-08-21T11:17:24;3.67;;;1.75;;
25549;SDS011;13444;50.562;7.262;2022-08-21T11:20:10;4.22;;;1.90;;
25549;SDS011;13444;50.562;7.262;2022-08-21T11:22:56;3.88;;;1.65;;
25549;SDS011;13444;50.562;7.262;2022-08-21T11:25:35;5.43;;;2.30;;
25549;SDS011;13444;50.562;7.262;2022-08-21T11:30:41;6.38;;;1.83;;
25549;SDS011;13444;50.562;7.262;2022-08-21T11:33:25;3.80;;;1.83;;
25549;SDS011;13444;50.562;7.262;2022-08-21T11:36:12;5.85;;;2.00;;
25549;SDS011;13444;50.562;7.262;2022-08-21T11:38:39;3.97;;;1.70;;
25549;SDS011;13444;50.562;7.262;2022-08-21T11:44:15;4.35;;;1.77;;
25549;SDS011;13444;50.562;7.262;2022-08-21T11:49:53;4.82;;;1.60;;
25549;SDS011;13444;50.562;7.262;2022-08-21T11:52:40;5.32;;;1.83;;
25549;SDS011;13444;50.562;7.262;2022-08-21T11:55:18;4.00;;;1.70;;
25549;SDS011;13444;50.562;7.262;2022-08-21T11:57:57;5.80;;;1.60;;
25549;SDS011;13444;50.562;7.262;2022-08-21T12:00:40;5.25;;;1.80;;
25549;SDS011;13444;50.562;7.262;2022-08-21T12:03:11;5.20;;;1.92;;
25549;SDS011;13444;50.562;7.262;2022-08-21T12:05:52;5.50;;;1.80;;
25549;SDS011;13444;50.562;7.262;2022-08-21T12:08:36;4.85;;;2.10;;
25549;SDS011;13444;50.562;7.262;2022-08-21T12:11:20;5.43;;;1.85;;
25549;SDS011;13444;50.562;7.262;2022-08-21T12:16:34;3.45;;;1.60;;
25549;SDS011;13444;50.562;7.262;2022-08-21T12:24:44;6.32;;;2.00;;
25549;SDS011;13444;50.562;7.262;2022-08-21T12:27:18;3.95;;;1.50;;
25549;SDS011;13444;50.562;7.262;2022-08-21T12:29:55;4.10;;;1.73;;
25549;SDS011;13444;50.562;7.262;2022-08-21T12:35:10;5.97;;;1.90;;
25549;SDS011;13444;50.562;7.262;2022-08-21T12:37:47;5.15;;;1.60;;
25549;SDS011;13444;50.562;7.262;2022-08-21T12:40:28;3.50;;;1.45;;
25549;SDS011;13444;50.562;7.262;2022-08-21T12:42:58;3.80;;;1.88;;
25549;SDS011;13444;50.562;7.262;2022-08-21T12:47:59;3.17;;;1.50;;
25549;SDS011;13444;50.562;7.262;2022-08-21T12:50:50;7.35;;;2.40;;
25549;SDS011;13444;50.562;7.262;2022-08-21T12:53:32;5.88;;;1.88;;
25549;SDS011;13444;50.562;7.262;2022-08-21T12:56:08;6.10;;;1.70;;
25549;SDS011;13444;50.562;7.262;2022-08-21T12:58:39;4.07;;;1.77;;
25549;SDS011;13444;50.562;7.262;2022-08-21T13:01:06;4.43;;;1.50;;
25549;SDS011;13444;50.562;7.262;2022-08-21T13:03:42;5.13;;;1.75;;
25549;SDS011;13444;50.562;7.262;2022-08-21T13:06:12;4.13;;;1.58;;
25549;SDS011;13444;50.562;7.262;2022-08-21T13:08:41;5.07;;;1.73;;
25549;SDS011;13444;50.562;7.262;2022-08-21T13:11:08;4.25;;;1.55;;
25549;SDS011;13444;50.562;7.262;2022-08-21T13:13:35;3.88;;;1.48;;
25549;SDS011;13444;50.562;7.262;2022-08-21T13:16:05;4.13;;;1.73;;
25549;SDS011;13444;50.562;7.262;2022-08-21T13:18:33;3.38;;;1.60;;
25549;SDS011;13444;50.562;7.262;2022-08-21T13:21:05;4.82;;;1.55;;
25549;SDS011;13444;50.562;7.262;2022-08-21T13:23:38;3.30;;;1.58;;
25549;SDS011;13444;50.562;7.262;2022-08-21T13:26:12;5.03;;;1.75;;
25549;SDS011;13444;50.562;7.262;2022-08-21T13:28:47;3.42;;;1.48;;
25549;SDS011;13444;50.562;7.262;2022-08-21T13:31:20;4.47;;;1.70;;
25549;SDS011;13444;50.562;7.262;2022-08-21T13:33:49;9.57;;;1.90;;
25549;SDS011;13444;50.562;7.262;2022-08-21T13:36:18;4.20;;;1.70;;
25549;SDS011;13444;50.562;7.262;2022-08-21T13:38:50;4.43;;;1.98;;
25549;SDS011;13444;50.562;7.262;2022-08-21T13:43:56;4.85;;;1.70;;
25549;SDS011;13444;50.562;7.262;2022-08-21T13:46:24;3.72;;;1.40;;
25549;SDS011;13444;50.562;7.262;2022-08-21T13:48:53;4.35;;;1.65;;
25549;SDS011;13444;50.562;7.262;2022-08-21T13:51:20;6.65;;;1.55;;
25549;SDS011;13444;50.562;7.262;2022-08-21T13:53:47;3.40;;;1.52;;
25549;SDS011;13444;50.562;7.262;2022-08-21T13:56:22;3.33;;;1.30;;
25549;SDS011;13444;50.562;7.262;2022-08-21T13:58:53;5.32;;;2.00;;
25549;SDS011;13444;50.562;7.262;2022-08-21T14:01:25;5.40;;;1.67;;
25549;SDS011;13444;50.562;7.262;2022-08-21T14:04:04;5.13;;;1.48;;
25549;SDS011;13444;50.562;7.262;2022-08-21T14:06:42;3.45;;;1.60;;
25549;SDS011;13444;50.562;7.262;2022-08-21T14:09:10;3.67;;;1.50;;
25549;SDS011;13444;50.562;7.262;2022-08-21T14:11:47;2.50;;;1.35;;
25549;SDS011;13444;50.562;7.262;2022-08-21T14:14:22;3.08;;;1.55;;
25549;SDS011;13444;50.562;7.262;2022-08-21T14:16:59;7.25;;;1.88;;
25549;SDS011;13444;50.562;7.262;2022-08-21T14:19:39;6.65;;;1.85;;
25549;SDS011;13444;50.562;7.262;2022-08-21T14:27:42;7.30;;;1.73;;
25549;SDS011;13444;50.562;7.262;2022-08-21T14:30:12;3.63;;;1.38;;
25549;SDS011;13444;50.562;7.262;2022-08-21T14:32:43;2.45;;;1.50;;
25549;SDS011;13444;50.562;7.262;2022-08-21T14:35:09;4.57;;;1.65;;
25549;SDS011;13444;50.562;7.262;2022-08-21T14:37:36;7.88;;;1.80;;
25549;SDS011;13444;50.562;7.262;2022-08-21T14:40:01;3.75;;;1.60;;
25549;SDS011;13444;50.562;7.262;2022-08-21T14:42:28;4.45;;;1.88;;
25549;SDS011;13444;50.562;7.262;2022-08-21T14:44:54;2.70;;;1.25;;
25549;SDS011;13444;50.562;7.262;2022-08-21T14:47:24;4.90;;;1.40;;
25549;SDS011;13444;50.562;7.262;2022-08-21T14:49:50;8.70;;;2.20;;
25549;SDS011;13444;50.562;7.262;2022-08-21T14:52:18;3.78;;;1.60;;
25549;SDS011;13444;50.562;7.262;2022-08-21T14:54:44;2.35;;;1.23;;
25549;SDS011;13444;50.562;7.262;2022-08-21T14:57:10;8.60;;;1.85;;
25549;SDS011;13444;50.562;7.262;2022-08-21T14:59:37;4.00;;;1.60;;
25549;SDS011;13444;50.562;7.262;2022-08-21T15:02:04;5.45;;;1.52;;
25549;SDS011;13444;50.562;7.262;2022-08-21T15:04:33;5.28;;;1.52;;
25549;SDS011;13444;50.562;7.262;2022-08-21T15:06:59;4.50;;;1.70;;
25549;SDS011;13444;50.562;7.262;2022-08-21T15:09:25;3.08;;;1.50;;
25549;SDS011;13444;50.562;7.262;2022-08-21T15:11:52;4.60;;;1.70;;
25549;SDS011;13444;50.562;7.262;2022-08-21T15:14:21;5.70;;;1.70;;
25549;SDS011;13444;50.562;7.262;2022-08-21T15:16:49;6.00;;;1.60;;
25549;SDS011;13444;50.562;7.262;2022-08-21T15:19:16;5.45;;;1.40;;
25549;SDS011;13444;50.562;7.262;2022-08-21T15:21:41;2.88;;;1.38;;
25549;SDS011;13444;50.562;7.262;2022-08-21T15:24:07;4.10;;;1.52;;
25549;SDS011;13444;50.562;7.262;2022-08-21T15:26:33;6.00;;;1.65;;
25549;SDS011;13444;50.562;7.262;2022-08-21T15:28:59;3.25;;;1.10;;
25549;SDS011;13444;50.562;7.262;2022-08-21T15:31:25;4.18;;;1.70;;
25549;SDS011;13444;50.562;7.262;2022-08-21T15:33:52;4.80;;;1.33;;
25549;SDS011;13444;50.562;7.262;2022-08-21T15:36:18;4.05;;;1.45;;
25549;SDS011;13444;50.562;7.262;2022-08-21T15:38:44;4.05;;;1.65;;
25549;SDS011;13444;50.562;7.262;2022-08-21T15:41:10;4.50;;;1.35;;
25549;SDS011;13444;50.562;7.262;2022-08-21T15:46:10;3.97;;;1.65;;
25549;SDS011;13444;50.562;7.262;2022-08-21T15:48:38;2.92;;;1.52;;
25549;SDS011;13444;50.562;7.262;2022-08-21T15:51:04;6.05;;;1.65;;
25549;SDS011;13444;50.562;7.262;2022-08-21T15:53:29;3.95;;;1.48;;
25549;SDS011;13444;50.562;7.262;2022-08-21T15:56:00;3.33;;;1.35;;
25549;SDS011;13444;50.562;7.262;2022-08-21T15:58:26;4.97;;;1.38;;
25549;SDS011;13444;50.562;7.262;2022-08-21T16:00:52;4.28;;;1.52;;
25549;SDS011;13444;50.562;7.262;2022-08-21T16:03:18;3.17;;;1.35;;
25549;SDS011;13444;50.562;7.262;2022-08-21T16:05:46;4.63;;;1.40;;
25549;SDS011;13444;50.562;7.262;2022-08-21T16:08:17;4.15;;;1.55;;
25549;SDS011;13444;50.562;7.262;2022-08-21T16:10:44;5.88;;;1.88;;